Time;durP1;ratioP1;P1;durP2;ratioP2;P2;SDS_P1;SDS_P2;PMS_P1;PMS_P2;Temp;Humidity;BMP_temperature;BMP_pressure;BME280_temperature;BME280_humidity;BME280_pressure;Samples;Min_cycle;Max_cycle;Signal;HPM_P1;HPM_P2
2022/10/15 00:00:22;;;;;;;35.97;16.90;;;17.80;99.90;;;;;;4950780;29;20593;-67
2022/10/15 00:02:48;;;;;;;38.17;17.45;;;15.90;99.90;;;;;;4952180;29;20066;-67
2022/10/15 00:05:13;;;;;;;42.42;21.48;;;17.60;99.90;;;;;;4951729;29;20416;-66
2022/10/15 00:07:40;;;;;;;46.28;26.55;;;15.20;99.90;;;;;;4952751;29;20039;-66
2022/10/15 00:10:05;;;;;;;53.95;30.38;;;15.10;99.90;;;;;;4952678;29;20035;-66
2022/10/15 00:12:31;;;;;;;65.30;32.63;;;17.60;99.90;;;;;;4936078;29;20527;-66
2022/10/15 00:14:56;;;;;;;69.38;37.30;;;16.30;99.90;;;;;;4953209;29;20043;-66
2022/10/15 00:17:22;;;;;;;76.97;38.22;;;15.40;99.90;;;;;;4952182;29;20075;-66
2022/10/15 00:19:48;;;;;;;80.03;41.03;;;17.70;99.90;;;;;;4948741;29;20089;-66
2022/10/15 00:22:13;;;;;;;80.68;40.25;;;15.20;99.90;;;;;;4945547;29;20051;-66
2022/10/15 00:24:39;;;;;;;79.47;41.05;;;16.50;99.90;;;;;;4949479;29;20122;-66
2022/10/15 00:27:04;;;;;;;72.05;38.85;;;15.10;99.90;;;;;;4950830;29;20481;-66
2022/10/15 00:29:30;;;;;;;65.70;37.55;;;16.60;99.90;;;;;;4936463;29;20374;-66
2022/10/15 00:31:55;;;;;;;69.13;37.90;;;16.70;99.90;;;;;;4951330;29;20070;-66
2022/10/15 00:34:21;;;;;;;83.30;39.78;;;16.60;99.90;;;;;;4951836;29;20051;-66
2022/10/15 00:36:49;;;;;;;67.22;37.40;;;17.40;99.90;;;;;;4950810;29;20392;-66
2022/10/15 00:39:15;;;;;;;69.13;37.67;;;16.80;99.90;;;;;;4952188;29;20047;-66
2022/10/15 00:41:42;;;;;;;89.97;42.72;;;16.90;99.90;;;;;;4950648;29;20122;-66
2022/10/15 00:44:20;;;;;;;95.15;41.17;;;17.30;99.90;;;;;;4964199;28;20046;-66
2022/10/15 00:46:48;;;;;;;94.95;40.45;;;16.90;99.90;;;;;;4951297;29;20522;-66
2022/10/15 00:49:24;;;;;;;93.10;41.95;;;17.00;99.90;;;;;;4949972;29;20098;-65
2022/10/15 00:52:16;;;;;;;90.38;40.40;;;16.50;99.90;;;;;;4951684;29;20043;-66
2022/10/15 00:54:50;;;;;;;75.88;39.20;;;16.40;99.90;;;;;;4934578;29;20039;-66
2022/10/15 00:57:16;;;;;;;84.72;39.33;;;15.00;99.90;;;;;;4949416;29;20043;-65
2022/10/15 00:59:51;;;;;;;85.35;39.67;;;17.00;99.90;;;;;;4952097;28;20062;-66
2022/10/15 01:02:19;;;;;;;97.70;41.75;;;15.30;99.90;;;;;;4935963;29;20138;-66
2022/10/15 01:04:45;;;;;;;84.05;40.47;;;15.10;99.90;;;;;;4948398;29;20453;-66
2022/10/15 01:07:11;;;;;;;100.68;40.28;;;17.00;99.90;;;;;;4941231;28;20086;-66
2022/10/15 01:09:37;;;;;;;85.72;39.17;;;15.00;99.90;;;;;;4950896;29;20043;-66
2022/10/15 01:12:10;;;;;;;68.72;35.50;;;14.90;99.90;;;;;;4950600;29;20043;-67
2022/10/15 01:14:50;;;;;;;81.72;38.20;;;16.30;99.90;;;;;;4951376;29;20408;-66
2022/10/15 01:17:37;;;;;;;78.97;37.72;;;15.10;99.90;;;;;;4949515;29;20141;-66
2022/10/15 01:20:41;;;;;;;75.63;34.67;;;17.30;99.90;;;;;;4946761;29;20051;-66
2022/10/15 01:23:19;;;;;;;73.95;34.00;;;16.10;99.90;;;;;;4928945;29;20471;-66
2022/10/15 01:26:07;;;;;;;69.22;32.83;;;14.90;99.90;;;;;;4947148;29;20098;-66
2022/10/15 01:28:55;;;;;;;67.13;30.05;;;16.80;99.90;;;;;;4950794;29;20043;-66
2022/10/15 01:31:37;;;;;;;47.53;25.00;;;15.40;99.90;;;;;;4950778;29;20043;-66
2022/10/15 01:34:15;;;;;;;44.70;23.40;;;14.90;99.90;;;;;;4951457;29;20043;-66
2022/10/15 01:36:50;;;;;;;39.20;20.55;;;15.00;99.90;;;;;;4951525;29;20043;-66
2022/10/15 01:39:27;;;;;;;39.63;20.00;;;16.20;99.90;;;;;;4949817;29;20148;-66
2022/10/15 01:42:02;;;;;;;39.47;19.42;;;15.50;99.90;;;;;;4941586;29;20397;-66
2022/10/15 01:44:41;;;;;;;27.15;15.43;;;15.60;99.90;;;;;;4949034;29;20058;-66
2022/10/15 01:47:31;;;;;;;25.85;15.23;;;16.50;99.90;;;;;;4949986;29;20038;-66
2022/10/15 01:49:59;;;;;;;25.67;14.98;;;14.90;99.90;;;;;;4951163;29;20039;-66
2022/10/15 01:52:30;;;;;;;24.00;14.40;;;17.50;99.90;;;;;;4949171;29;20058;-66
2022/10/15 01:54:56;;;;;;;27.67;14.63;;;17.00;99.90;;;;;;4947188;29;20147;-67
2022/10/15 01:57:25;;;;;;;20.60;13.13;;;15.30;99.90;;;;;;4948911;29;20521;-66
2022/10/15 01:59:52;;;;;;;25.60;14.73;;;15.10;99.90;;;;;;4950818;29;20044;-66
2022/10/15 02:02:18;;;;;;;26.35;16.23;;;17.50;99.90;;;;;;4951257;29;20043;-66
2022/10/15 02:04:43;;;;;;;24.30;15.13;;;15.70;99.90;;;;;;4951299;29;20042;-66
2022/10/15 02:07:42;;;;;;;25.05;16.98;;;15.40;99.90;;;;;;4950622;29;20043;-66
2022/10/15 02:10:26;;;;;;;26.17;16.60;;;15.40;99.90;;;;;;4949811;29;20434;-66
2022/10/15 02:13:16;;;;;;;24.65;16.88;;;17.50;99.90;;;;;;4951594;28;20039;-66
2022/10/15 02:15:58;;;;;;;26.63;17.73;;;15.80;99.90;;;;;;4954263;29;20097;-66
2022/10/15 02:18:45;;;;;;;36.88;20.60;;;15.50;99.90;;;;;;4952895;29;20479;-66
2022/10/15 02:21:28;;;;;;;43.25;26.83;;;15.10;99.90;;;;;;4955152;29;20050;-66
2022/10/15 02:24:22;;;;;;;50.92;29.05;;;15.10;99.90;;;;;;4952335;29;20043;-66
2022/10/15 02:26:51;;;;;;;54.00;29.15;;;16.70;99.90;;;;;;4954215;29;20039;-66
2022/10/15 02:29:20;;;;;;;66.05;35.85;;;16.10;99.90;;;;;;4954120;29;20564;-66
2022/10/15 02:31:47;;;;;;;62.03;36.33;;;15.40;99.90;;;;;;4954258;29;20053;-66
2022/10/15 02:34:18;;;;;;;52.15;32.88;;;16.90;99.90;;;;;;4954423;29;20052;-66
2022/10/15 02:36:45;;;;;;;79.25;40.13;;;15.50;99.90;;;;;;4952908;29;20463;-66
2022/10/15 02:39:14;;;;;;;76.30;40.42;;;15.70;99.90;;;;;;4955605;28;20031;-66
2022/10/15 02:41:40;;;;;;;83.35;40.28;;;15.10;99.90;;;;;;4951476;29;20049;-66
2022/10/15 02:44:06;;;;;;;78.90;38.13;;;15.00;99.90;;;;;;4937989;29;20043;-66
2022/10/15 02:46:32;;;;;;;78.88;38.88;;;15.70;99.90;;;;;;4954539;29;20051;-66
2022/10/15 02:48:57;;;;;;;74.97;37.65;;;17.00;99.90;;;;;;4952237;29;20478;-66
2022/10/15 02:51:23;;;;;;;72.75;37.53;;;15.60;99.90;;;;;;4953446;29;20043;-66
2022/10/15 02:53:48;;;;;;;59.63;32.78;;;17.50;99.90;;;;;;4952072;29;20483;-66
2022/10/15 02:56:14;;;;;;;62.67;32.05;;;15.30;99.90;;;;;;4953840;29;20054;-66
2022/10/15 02:58:40;;;;;;;65.40;33.15;;;17.50;99.90;;;;;;4953647;29;20073;-67
2022/10/15 03:01:06;;;;;;;74.90;37.65;;;15.40;99.90;;;;;;4951500;29;20030;-66
2022/10/15 03:03:31;;;;;;;80.28;37.67;;;16.20;99.90;;;;;;4953017;29;20070;-66
2022/10/15 03:05:57;;;;;;;93.60;39.90;;;17.00;99.90;;;;;;4936297;29;20076;-67
2022/10/15 03:08:22;;;;;;;82.00;37.83;;;15.10;99.90;;;;;;4952659;29;20039;-66
2022/10/15 03:10:48;;;;;;;77.80;37.30;;;15.00;99.90;;;;;;4952535;29;20035;-66
2022/10/15 03:13:14;;;;;;;61.58;31.38;;;16.90;99.90;;;;;;4950992;29;20054;-66
2022/10/15 03:15:39;;;;;;;60.17;31.95;;;18.00;99.90;;;;;;4953702;29;20417;-66
2022/10/15 03:18:06;;;;;;;70.70;36.80;;;15.60;99.90;;;;;;4948903;29;20051;-66
2022/10/15 03:20:31;;;;;;;75.47;38.63;;;16.90;99.90;;;;;;4934801;29;20055;-66
2022/10/15 03:22:57;;;;;;;77.00;39.28;;;15.30;99.90;;;;;;4946039;28;20035;-66
2022/10/15 03:25:22;;;;;;;89.85;41.95;;;15.70;99.90;;;;;;4951323;29;20417;-66
2022/10/15 03:27:48;;;;;;;86.80;42.47;;;14.90;99.90;;;;;;4944930;29;20059;-66
2022/10/15 03:30:13;;;;;;;69.93;35.83;;;15.50;99.90;;;;;;4934097;29;20055;-66
2022/10/15 03:32:39;;;;;;;59.60;32.65;;;15.90;99.90;;;;;;4934713;29;20517;-66
2022/10/15 03:35:05;;;;;;;78.43;37.58;;;15.20;99.90;;;;;;4938834;29;20047;-66
2022/10/15 03:37:30;;;;;;;73.22;36.97;;;15.30;99.90;;;;;;4946823;29;20039;-66
2022/10/15 03:39:56;;;;;;;86.38;39.55;;;17.10;99.90;;;;;;4937691;29;20051;-66
2022/10/15 03:42:22;;;;;;;90.60;41.97;;;15.50;99.90;;;;;;4936189;29;20051;-66
2022/10/15 03:44:47;;;;;;;93.43;43.38;;;17.40;99.90;;;;;;4944076;29;20100;-66
2022/10/15 03:47:13;;;;;;;101.95;46.10;;;15.00;99.90;;;;;;4934263;29;20548;-66
2022/10/15 03:49:39;;;;;;;93.85;43.13;;;16.80;99.90;;;;;;4934091;29;20043;-66
2022/10/15 03:52:04;;;;;;;76.40;38.10;;;15.30;99.90;;;;;;4935106;29;20044;-66
2022/10/15 03:54:30;;;;;;;84.20;40.25;;;17.00;99.90;;;;;;4951190;29;20051;-66
2022/10/15 03:56:55;;;;;;;96.90;42.45;;;17.20;99.90;;;;;;4942682;29;20036;-66
2022/10/15 03:59:21;;;;;;;94.55;43.97;;;17.30;99.90;;;;;;4934109;29;20051;-66
2022/10/15 04:01:47;;;;;;;121.60;45.92;;;17.20;99.90;;;;;;4944995;29;20106;-67
2022/10/15 04:04:12;;;;;;;101.60;44.88;;;17.20;99.90;;;;;;4944497;29;20035;-66
2022/10/15 04:06:38;;;;;;;113.07;46.60;;;16.30;99.90;;;;;;4947185;29;20035;-66
2022/10/15 04:09:04;;;;;;;115.43;45.70;;;15.30;99.90;;;;;;4947240;29;20481;-66
2022/10/15 04:11:30;;;;;;;78.30;37.88;;;16.60;99.90;;;;;;4943704;29;20043;-66
2022/10/15 04:13:55;;;;;;;84.93;43.30;;;16.70;99.90;;;;;;4938289;29;20519;-67
2022/10/15 04:16:21;;;;;;;80.18;39.53;;;16.50;99.90;;;;;;4953125;29;20356;-66
2022/10/15 04:18:46;;;;;;;83.90;41.38;;;15.60;99.90;;;;;;4950565;29;20051;-66
2022/10/15 04:21:12;;;;;;;103.10;44.58;;;16.00;99.90;;;;;;4953193;29;20043;-66
2022/10/15 04:23:38;;;;;;;94.47;43.78;;;15.10;99.90;;;;;;4950943;29;20110;-66
2022/10/15 04:26:03;;;;;;;99.78;44.42;;;16.20;99.90;;;;;;4951203;29;20070;-66
2022/10/15 04:28:29;;;;;;;107.10;44.00;;;16.80;99.90;;;;;;4952151;29;20058;-66
2022/10/15 04:30:57;;;;;;;93.88;42.55;;;15.90;99.90;;;;;;4951596;29;20429;-66
2022/10/15 04:33:22;;;;;;;84.38;41.40;;;14.50;99.90;;;;;;4950354;29;20078;-66
2022/10/15 04:36:00;;;;;;;84.32;42.65;;;15.20;99.90;;;;;;4945012;28;20521;-66
2022/10/15 04:38:26;;;;;;;75.53;39.28;;;15.20;99.90;;;;;;4951438;29;20046;-66
2022/10/15 04:41:18;;;;;;;100.53;43.10;;;16.60;99.90;;;;;;4952439;29;20047;-66
2022/10/15 04:43:43;;;;;;;97.50;43.08;;;14.60;99.90;;;;;;4949036;28;20051;-66
2022/10/15 04:46:09;;;;;;;103.00;44.33;;;15.90;99.90;;;;;;4950097;29;20086;-66
2022/10/15 04:48:36;;;;;;;101.90;43.97;;;14.60;99.90;;;;;;4935977;29;20055;-66
2022/10/15 04:51:12;;;;;;;95.15;41.85;;;16.30;99.90;;;;;;4950711;29;20032;-66
2022/10/15 04:53:38;;;;;;;84.63;41.80;;;15.90;99.90;;;;;;4946350;29;20101;-66
2022/10/15 04:56:06;;;;;;;91.80;41.58;;;15.80;99.90;;;;;;4950698;29;20039;-66
2022/10/15 04:58:34;;;;;;;81.43;39.05;;;15.70;99.90;;;;;;4951568;29;20046;-66
2022/10/15 05:01:11;;;;;;;100.75;45.03;;;15.00;99.90;;;;;;4952136;29;20046;-66
2022/10/15 05:03:37;;;;;;;93.55;43.80;;;14.50;99.90;;;;;;4951351;29;20057;-66
2022/10/15 05:06:08;;;;;;;111.68;45.88;;;16.20;99.90;;;;;;4949494;29;20033;-66
2022/10/15 05:08:35;;;;;;;117.90;47.15;;;16.80;99.90;;;;;;4950819;29;20413;-66
2022/10/15 05:11:02;;;;;;;89.28;43.78;;;16.40;99.90;;;;;;4951172;29;20114;-67
2022/10/15 05:13:28;;;;;;;89.45;42.08;;;16.40;99.90;;;;;;4946022;29;20043;-66
2022/10/15 05:15:53;;;;;;;104.93;45.80;;;14.40;99.90;;;;;;4951038;29;20432;-66
2022/10/15 05:18:19;;;;;;;96.60;44.08;;;14.20;99.90;;;;;;4946904;29;20071;-66
2022/10/15 05:20:44;;;;;;;106.97;47.60;;;14.90;99.90;;;;;;4943731;29;20047;-66
2022/10/15 05:23:10;;;;;;;121.78;49.60;;;16.50;99.90;;;;;;4943218;29;20090;-65
2022/10/15 05:25:35;;;;;;;128.07;48.53;;;16.60;99.90;;;;;;4937172;29;20031;-66
2022/10/15 05:28:01;;;;;;;140.00;49.47;;;16.40;99.90;;;;;;4942112;29;20095;-66
2022/10/15 05:30:27;;;;;;;84.00;40.58;;;14.40;99.90;;;;;;4937294;29;20036;-66
2022/10/15 05:32:54;;;;;;;98.75;41.08;;;14.50;99.90;;;;;;4925346;29;20039;-66
2022/10/15 05:35:20;;;;;;;107.65;42.40;;;14.50;99.90;;;;;;4924599;29;20051;-66
2022/10/15 05:37:45;;;;;;;127.32;45.92;;;16.80;99.90;;;;;;4943376;29;20485;-66
2022/10/15 05:40:11;;;;;;;132.82;47.75;;;16.90;99.90;;;;;;4938456;29;20039;-66
2022/10/15 05:42:37;;;;;;;122.57;45.60;;;15.50;99.90;;;;;;4922794;29;20039;-66
2022/10/15 05:45:03;;;;;;;131.68;45.33;;;14.90;99.90;;;;;;4945053;29;20532;-66
2022/10/15 05:47:28;;;;;;;120.22;45.33;;;16.80;99.90;;;;;;4946968;29;20046;-66
2022/10/15 05:49:54;;;;;;;83.05;37.05;;;16.70;99.90;;;;;;4945475;29;20453;-66
2022/10/15 05:52:19;;;;;;;77.30;38.83;;;16.80;99.90;;;;;;4935115;29;20398;-66
2022/10/15 05:54:45;;;;;;;82.90;41.35;;;16.50;99.90;;;;;;4928072;29;20106;-66
2022/10/15 05:57:10;;;;;;;78.18;40.90;;;15.80;99.90;;;;;;4953094;29;20416;-66
2022/10/15 05:59:36;;;;;;;115.95;48.30;;;14.60;99.90;;;;;;4939314;29;20047;-66
2022/10/15 06:02:01;;;;;;;117.25;51.53;;;15.60;99.90;;;;;;4947150;29;20063;-66
2022/10/15 06:04:27;;;;;;;133.25;53.72;;;17.10;99.90;;;;;;4954653;29;20489;-66
2022/10/15 06:06:53;;;;;;;124.00;53.63;;;14.70;99.90;;;;;;4947934;29;20039;-66
2022/10/15 06:09:18;;;;;;;126.60;53.92;;;16.90;99.90;;;;;;4936367;29;20047;-66
2022/10/15 06:11:44;;;;;;;102.28;45.65;;;17.10;99.90;;;;;;4953573;29;20142;-66
2022/10/15 06:14:10;;;;;;;82.65;42.33;;;14.70;99.90;;;;;;4945771;28;20071;-66
2022/10/15 06:16:36;;;;;;;91.90;44.70;;;15.70;99.90;;;;;;4947344;29;20053;-66
2022/10/15 06:19:02;;;;;;;115.38;51.90;;;14.70;99.90;;;;;;4937005;29;20134;-66
2022/10/15 06:21:28;;;;;;;120.03;53.45;;;16.70;99.90;;;;;;4944077;29;20039;-67
2022/10/15 06:23:53;;;;;;;120.50;56.75;;;14.70;99.90;;;;;;4940019;29;20043;-66
2022/10/15 06:26:19;;;;;;;128.93;58.20;;;15.90;99.90;;;;;;4939343;29;20043;-66
2022/10/15 06:28:44;;;;;;;121.80;55.03;;;17.10;99.90;;;;;;4950875;29;20067;-66
2022/10/15 06:31:11;;;;;;;91.00;46.53;;;16.60;99.90;;;;;;4949146;29;20035;-66
2022/10/15 06:33:36;;;;;;;99.57;52.08;;;16.90;99.90;;;;;;4945267;29;20055;-67
2022/10/15 06:36:04;;;;;;;83.38;45.53;;;16.50;99.90;;;;;;4949551;29;20036;-66
2022/10/15 06:38:30;;;;;;;77.88;43.97;;;14.70;99.90;;;;;;4947180;29;20039;-66
2022/10/15 06:40:56;;;;;;;115.90;54.25;;;16.90;99.90;;;;;;4944575;29;20542;-66
2022/10/15 06:43:22;;;;;;;109.40;55.05;;;15.90;99.90;;;;;;4949769;29;20047;-66
2022/10/15 06:45:47;;;;;;;103.53;53.72;;;16.40;99.90;;;;;;4935586;29;20056;-66
2022/10/15 06:48:13;;;;;;;113.28;57.17;;;16.80;99.90;;;;;;4946670;29;20038;-66
2022/10/15 06:50:39;;;;;;;92.97;47.85;;;14.70;99.90;;;;;;4953214;29;20035;-66
2022/10/15 06:53:05;;;;;;;83.78;46.60;;;15.90;99.90;;;;;;4944568;29;20500;-66
2022/10/15 06:55:31;;;;;;;92.95;44.90;;;16.20;99.90;;;;;;4945122;29;20050;-66
2022/10/15 06:57:57;;;;;;;89.15;47.33;;;14.70;99.90;;;;;;4946958;28;20151;-66
2022/10/15 07:00:24;;;;;;;83.40;45.33;;;16.90;99.90;;;;;;4940182;29;20080;-67
2022/10/15 07:02:50;;;;;;;103.55;54.05;;;14.60;99.90;;;;;;4936720;29;20055;-66
2022/10/15 07:05:16;;;;;;;107.35;53.88;;;16.40;99.90;;;;;;4943549;29;20055;-66
2022/10/15 07:07:43;;;;;;;120.90;55.83;;;15.50;99.90;;;;;;4945078;29;20122;-66
2022/10/15 07:10:09;;;;;;;73.03;39.00;;;15.30;99.90;;;;;;4939497;29;20134;-66
2022/10/15 07:12:34;;;;;;;88.82;46.35;;;15.00;99.90;;;;;;4948931;29;20479;-67
2022/10/15 07:15:00;;;;;;;101.35;51.83;;;16.00;99.90;;;;;;4943270;29;20062;-66
2022/10/15 07:17:27;;;;;;;107.18;52.53;;;16.30;99.90;;;;;;4950844;29;20059;-66
2022/10/15 07:19:52;;;;;;;108.13;53.90;;;16.00;99.90;;;;;;4935097;29;20043;-66
2022/10/15 07:22:18;;;;;;;128.90;60.40;;;17.20;99.90;;;;;;4949158;29;20103;-66
2022/10/15 07:24:43;;;;;;;109.97;55.38;;;14.90;99.90;;;;;;4948002;29;20043;-67
2022/10/15 07:27:09;;;;;;;92.05;45.08;;;16.80;99.90;;;;;;4941277;29;20042;-65
2022/10/15 07:29:34;;;;;;;98.95;47.67;;;16.80;99.90;;;;;;4949106;29;20134;-66
2022/10/15 07:32:00;;;;;;;94.65;48.15;;;15.60;99.90;;;;;;4937672;28;20409;-66
2022/10/15 07:34:26;;;;;;;96.97;45.72;;;17.20;99.90;;;;;;4933798;29;20516;-67
2022/10/15 07:36:51;;;;;;;81.90;39.95;;;17.20;99.90;;;;;;4928840;29;20500;-66
2022/10/15 07:39:18;;;;;;;76.95;39.67;;;16.10;99.90;;;;;;4953220;29;20054;-67
2022/10/15 07:41:44;;;;;;;114.68;51.03;;;15.00;99.90;;;;;;4950048;29;20405;-67
2022/10/15 07:44:10;;;;;;;89.13;42.15;;;16.70;99.90;;;;;;4950642;29;20043;-67
2022/10/15 07:46:36;;;;;;;101.35;45.88;;;17.40;99.90;;;;;;4948091;29;20085;-65
2022/10/15 07:49:02;;;;;;;130.88;53.17;;;17.30;99.90;;;;;;4934804;29;20488;-68
2022/10/15 07:51:27;;;;;;;70.18;34.40;;;15.30;99.90;;;;;;4946046;29;20043;-65
2022/10/15 07:53:53;;;;;;;60.63;30.67;;;14.90;99.90;;;;;;4943276;28;20090;-65
2022/10/15 07:56:18;;;;;;;74.13;33.40;;;15.20;99.90;;;;;;4943674;29;20035;-65
2022/10/15 07:58:50;;;;;;;85.03;37.10;;;16.10;99.90;;;;;;4948383;29;20044;-66
2022/10/15 08:01:17;;;;;;;103.00;41.33;;;16.00;99.90;;;;;;4950991;29;20470;-66
2022/10/15 08:03:42;;;;;;;77.00;34.30;;;16.80;99.90;;;;;;4942290;29;20047;-65
2022/10/15 08:06:08;;;;;;;100.05;41.22;;;15.50;99.90;;;;;;4946134;29;20091;-66
2022/10/15 08:08:34;;;;;;;110.57;41.72;;;15.60;99.90;;;;;;4939597;29;20113;-66
2022/10/15 08:11:09;;;;;;;67.82;29.45;;;15.00;99.90;;;;;;4933967;29;20039;-66
2022/10/15 08:13:35;;;;;;;75.88;32.28;;;17.40;99.90;;;;;;4939300;29;20073;-66
2022/10/15 08:16:01;;;;;;;84.22;34.95;;;15.20;99.90;;;;;;4942873;29;20051;-66
2022/10/15 08:18:27;;;;;;;83.95;37.40;;;17.10;99.90;;;;;;4944460;29;20115;-66
2022/10/15 08:20:52;;;;;;;87.32;36.00;;;16.10;99.90;;;;;;4951161;29;20559;-66
2022/10/15 08:23:18;;;;;;;78.53;36.03;;;16.40;99.90;;;;;;4950562;29;20043;-67
2022/10/15 08:25:43;;;;;;;60.50;28.42;;;17.40;99.90;;;;;;4943932;29;20052;-66
2022/10/15 08:28:09;;;;;;;93.68;41.58;;;15.70;99.90;;;;;;4934956;29;20131;-66
2022/10/15 08:30:35;;;;;;;100.13;44.75;;;15.20;99.90;;;;;;4931652;29;20073;-66
2022/10/15 08:33:01;;;;;;;73.72;34.78;;;15.40;99.90;;;;;;4962619;28;20106;-67
2022/10/15 08:35:27;;;;;;;70.22;35.17;;;15.10;99.90;;;;;;4944458;29;20047;-66
2022/10/15 08:37:53;;;;;;;59.47;32.97;;;16.60;99.90;;;;;;4945906;29;20051;-66
2022/10/15 08:40:23;;;;;;;57.92;33.47;;;15.00;99.90;;;;;;4946165;29;20051;-67
2022/10/15 08:42:50;;;;;;;65.22;35.65;;;15.00;99.90;;;;;;4943348;29;20035;-66
2022/10/15 08:45:26;;;;;;;66.32;36.13;;;15.20;99.90;;;;;;4944451;29;20061;-66
2022/10/15 08:48:05;;;;;;;61.65;34.72;;;15.20;99.90;;;;;;4945002;29;20039;-67
2022/10/15 08:50:38;;;;;;;65.38;35.00;;;15.60;99.90;;;;;;4945902;29;20062;-66
2022/10/15 08:53:04;;;;;;;53.15;31.42;;;16.30;99.90;;;;;;4947032;29;20039;-67
2022/10/15 08:55:37;;;;;;;60.30;35.35;;;15.40;99.90;;;;;;4945589;29;20491;-66
2022/10/15 08:58:14;;;;;;;55.25;30.38;;;15.80;99.90;;;;;;4933865;29;20035;-66
2022/10/15 09:00:48;;;;;;;56.97;32.80;;;17.50;99.90;;;;;;4950447;29;20055;-66
2022/10/15 09:03:30;;;;;;;63.47;36.20;;;17.80;99.90;;;;;;4947619;29;20479;-66
2022/10/15 09:06:01;;;;;;;74.18;38.70;;;17.10;99.90;;;;;;4949664;29;20093;-67
2022/10/15 09:08:48;;;;;;;67.03;37.85;;;17.80;99.90;;;;;;4949741;29;20035;-66
2022/10/15 09:11:29;;;;;;;51.15;27.63;;;16.20;99.90;;;;;;4943281;29;20038;-66
2022/10/15 09:13:56;;;;;;;53.92;28.50;;;16.80;99.90;;;;;;4944519;29;20519;-66
2022/10/15 09:16:27;;;;;;;46.78;26.10;;;17.20;99.90;;;;;;4944527;29;20043;-66
2022/10/15 09:18:54;;;;;;;46.55;22.30;;;17.10;99.90;;;;;;4946348;29;20055;-67
2022/10/15 09:21:24;;;;;;;46.15;24.73;;;16.00;99.90;;;;;;4945787;28;20122;-66
2022/10/15 09:23:51;;;;;;;56.88;29.92;;;15.20;99.90;;;;;;4931059;29;20497;-66
2022/10/15 09:26:28;;;;;;;52.08;27.38;;;17.00;99.90;;;;;;4934658;29;20105;-66
2022/10/15 09:29:26;;;;;;;50.63;26.98;;;16.30;99.90;;;;;;4933552;29;20066;-66
2022/10/15 09:31:51;;;;;;;;;;;17.00;99.90;;;;;;4950318;28;20476;-67
2022/10/15 09:34:29;;;;;;;38.10;21.77;;;17.30;99.90;;;;;;4949449;29;19965;-67
2022/10/15 09:37:01;;;;;;;45.35;24.27;;;15.30;99.90;;;;;;4948892;29;20110;-67
2022/10/15 09:39:54;;;;;;;49.10;26.90;;;17.80;99.90;;;;;;4950781;29;20477;-66
2022/10/15 09:42:32;;;;;;;60.95;35.10;;;17.10;99.90;;;;;;4933694;29;20405;-66
2022/10/15 09:45:02;;;;;;;52.45;29.60;;;17.40;99.90;;;;;;4947179;29;20508;-67
2022/10/15 09:47:33;;;;;;;63.20;35.38;;;16.50;99.90;;;;;;4947106;29;20536;-66
2022/10/15 09:50:00;;;;;;;64.50;33.00;;;17.10;99.90;;;;;;4943524;29;20040;-66
2022/10/15 09:52:54;;;;;;;65.63;30.98;;;16.20;99.90;;;;;;4943430;29;20042;-66
2022/10/15 09:55:48;;;;;;;48.22;25.13;;;15.40;99.90;;;;;;4946203;28;20078;-67
2022/10/15 09:58:18;;;;;;;54.20;27.85;;;16.80;99.90;;;;;;4931498;29;20405;-66
2022/10/15 10:00:54;;;;;;;44.05;23.92;;;16.30;99.90;;;;;;4927810;29;20505;-68
2022/10/15 10:03:22;;;;;;;49.65;23.83;;;15.70;99.90;;;;;;4936299;29;20051;-66
2022/10/15 10:05:49;;;;;;;54.05;25.90;;;17.60;99.90;;;;;;4946291;29;20049;-65
2022/10/15 10:08:21;;;;;;;48.80;23.20;;;16.00;99.90;;;;;;4945528;29;20582;-65
2022/10/15 10:11:02;;;;;;;54.08;26.95;;;18.10;99.90;;;;;;4949316;29;20069;-66
2022/10/15 10:13:31;;;;;;;51.85;27.55;;;16.80;99.90;;;;;;4945528;29;20047;-66
2022/10/15 10:16:05;;;;;;;54.20;26.85;;;18.00;99.90;;;;;;4942062;28;20497;-65
2022/10/15 10:18:31;;;;;;;50.22;22.50;;;17.90;99.90;;;;;;4926817;29;20102;-67
2022/10/15 10:21:14;;;;;;;44.25;21.50;;;16.90;99.90;;;;;;4944181;29;20043;-68
2022/10/15 10:23:40;;;;;;;45.38;20.60;;;15.90;99.90;;;;;;4944095;29;20045;-69
2022/10/15 10:26:09;;;;;;;34.67;18.75;;;17.90;99.90;;;;;;4948733;28;20039;-69
2022/10/15 10:28:48;;;;;;;46.83;24.05;;;17.80;99.90;;;;;;4950979;29;20734;-69
2022/10/15 10:31:13;;;;;;;42.15;20.38;;;17.20;99.90;;;;;;4950959;29;20043;-70
2022/10/15 10:33:39;;;;;;;42.00;21.35;;;16.60;99.90;;;;;;4935963;29;20055;-69
2022/10/15 10:36:07;;;;;;;50.67;25.02;;;17.90;99.90;;;;;;4954284;29;20500;-69
2022/10/15 10:38:35;;;;;;;48.25;22.23;;;17.90;99.90;;;;;;4954536;29;20083;-68
2022/10/15 10:41:11;;;;;;;51.25;25.67;;;15.90;99.90;;;;;;4954533;29;20488;-68
2022/10/15 10:43:38;;;;;;;45.70;25.70;;;15.80;99.90;;;;;;4947444;29;20043;-68
2022/10/15 10:46:13;;;;;;;41.20;20.83;;;16.00;99.90;;;;;;4953819;29;20043;-69
2022/10/15 10:48:40;;;;;;;39.60;20.98;;;18.40;99.90;;;;;;4954191;29;20043;-67
2022/10/15 10:51:22;;;;;;;41.38;21.08;;;18.40;99.90;;;;;;4954209;29;20044;-68
2022/10/15 10:53:58;;;;;;;34.65;21.02;;;16.10;99.90;;;;;;4954135;29;20051;-68
2022/10/15 10:56:30;;;;;;;32.00;18.48;;;16.30;99.90;;;;;;4954158;29;20089;-68
2022/10/15 10:59:12;;;;;;;34.58;17.45;;;17.80;99.90;;;;;;4938039;29;20044;-67
2022/10/15 11:01:38;;;;;;;27.92;17.80;;;17.90;99.90;;;;;;4953734;29;20456;-68
2022/10/15 11:04:08;;;;;;;29.85;16.35;;;18.70;99.90;;;;;;4953851;29;20122;-68
2022/10/15 11:06:57;;;;;;;33.78;20.15;;;16.60;99.90;;;;;;4954500;29;20122;-68
2022/10/15 11:09:34;;;;;;;31.77;20.63;;;18.50;99.90;;;;;;4953961;29;20150;-68
2022/10/15 11:12:21;;;;;;;25.58;16.15;;;18.50;99.90;;;;;;4950429;28;20547;-68
2022/10/15 11:14:53;;;;;;;28.05;17.90;;;18.90;99.90;;;;;;4952000;29;20054;-67
2022/10/15 11:17:21;;;;;;;27.42;17.80;;;17.20;99.90;;;;;;4947025;29;20062;-69
2022/10/15 11:20:18;;;;;;;24.90;15.65;;;19.10;99.90;;;;;;4953685;29;20051;-69
2022/10/15 11:22:50;;;;;;;24.83;15.90;;;17.10;99.90;;;;;;4937867;29;20066;-69
2022/10/15 11:25:33;;;;;;;20.38;13.98;;;19.10;99.90;;;;;;4953654;29;20510;-68
2022/10/15 11:28:22;;;;;;;22.23;13.35;;;17.70;99.90;;;;;;4953918;29;20051;-68
2022/10/15 11:31:04;;;;;;;24.17;17.08;;;17.80;99.90;;;;;;4954842;28;20049;-69
2022/10/15 11:33:47;;;;;;;20.65;13.02;;;18.50;99.90;;;;;;4953940;29;20133;-70
2022/10/15 11:36:25;;;;;;;21.83;14.30;;;19.00;99.90;;;;;;4953720;29;20039;-68
2022/10/15 11:39:01;;;;;;;16.70;12.18;;;19.00;99.90;;;;;;4937811;29;20124;-68
2022/10/15 11:41:43;;;;;;;16.85;12.52;;;17.30;99.90;;;;;;4953358;29;20055;-68
2022/10/15 11:44:19;;;;;;;17.38;11.82;;;18.80;99.90;;;;;;4953034;28;20382;-70
2022/10/15 11:47:05;;;;;;;;;;;18.00;99.90;;;;;;4953884;29;20047;-68
2022/10/15 11:49:39;;;;;;;19.98;15.38;;;18.10;99.90;;;;;;4889252;29;20306;-68
2022/10/15 11:52:21;;;;;;;16.75;11.35;;;19.10;99.90;;;;;;4953536;29;20489;-68
2022/10/15 11:55:25;;;;;;;14.38;10.68;;;19.00;99.90;;;;;;4953185;29;20118;-68
2022/10/15 11:57:56;;;;;;;14.70;10.18;;;18.30;99.90;;;;;;4953264;29;20043;-68
2022/10/15 12:00:44;;;;;;;14.23;10.13;;;17.70;99.90;;;;;;4952911;29;20071;-68
2022/10/15 12:03:25;;;;;;;12.63;9.35;;;18.70;99.90;;;;;;4953206;29;20488;-68
2022/10/15 12:06:15;;;;;;;12.73;8.38;;;18.90;99.90;;;;;;4936853;29;20715;-69
2022/10/15 12:08:42;;;;;;;13.57;9.77;;;17.80;99.90;;;;;;4969180;28;20117;-69
2022/10/15 12:11:32;;;;;;;13.98;8.63;;;18.10;99.90;;;;;;4953022;29;20039;-68
2022/10/15 12:14:01;;;;;;;12.23;8.65;;;19.00;99.90;;;;;;4952258;29;20054;-68
2022/10/15 12:16:35;;;;;;;11.05;7.50;;;18.70;99.90;;;;;;4952569;29;20043;-68
2022/10/15 12:19:11;;;;;;;11.95;8.43;;;17.60;99.90;;;;;;4936532;29;20398;-68
2022/10/15 12:21:39;;;;;;;14.70;9.52;;;17.70;99.90;;;;;;4937780;29;20035;-68
2022/10/15 12:24:37;;;;;;;12.40;8.70;;;18.20;99.90;;;;;;4952819;29;20126;-69
2022/10/15 12:27:18;;;;;;;10.48;7.65;;;19.20;99.90;;;;;;4938507;29;20039;-68
2022/10/15 12:30:02;;;;;;;11.10;7.55;;;17.90;99.90;;;;;;4933249;29;20046;-69
2022/10/15 12:32:42;;;;;;;11.20;8.43;;;19.20;99.90;;;;;;4933724;29;20047;-69
2022/10/15 12:35:14;;;;;;;11.93;8.63;;;18.70;99.90;;;;;;4935923;29;20098;-68
2022/10/15 12:37:42;;;;;;;13.05;8.52;;;18.90;99.90;;;;;;4936290;29;20078;-69
2022/10/15 12:40:20;;;;;;;11.15;8.60;;;17.70;99.90;;;;;;4936442;29;20055;-68
2022/10/15 12:42:59;;;;;;;13.05;9.18;;;19.20;99.90;;;;;;4952098;29;20126;-69